sensor_id;sensor_type;location;lat;lon;timestamp;P1;durP1;ratioP1;P2;durP2;ratioP2
6015;SDS011;3036;49.960;8.454;2024-02-14T00:00:54;2.97;;;2.80;;
6015;SDS011;3036;49.960;8.454;2024-02-14T00:03:21;4.40;;;3.00;;
6015;SDS011;3036;49.960;8.454;2024-02-14T00:05:49;3.37;;;3.17;;
6015;SDS011;3036;49.960;8.454;2024-02-14T00:08:17;3.07;;;2.80;;
6015;SDS011;3036;49.960;8.454;2024-02-14T00:10:44;5.50;;;3.00;;
6015;SDS011;3036;49.960;8.454;2024-02-14T00:13:11;3.20;;;3.00;;
6015;SDS011;3036;49.960;8.454;2024-02-14T00:15:39;5.93;;;3.13;;
6015;SDS011;3036;49.960;8.454;2024-02-14T00:18:08;3.20;;;2.90;;
6015;SDS011;3036;49.960;8.454;2024-02-14T00:20:35;2.80;;;2.60;;
6015;SDS011;3036;49.960;8.454;2024-02-14T00:23:03;3.23;;;3.03;;
6015;SDS011;3036;49.960;8.454;2024-02-14T00:25:31;3.10;;;2.90;;
6015;SDS011;3036;49.960;8.454;2024-02-14T00:27:58;3.87;;;3.50;;
6015;SDS011;3036;49.960;8.454;2024-02-14T00:30:25;3.60;;;3.20;;
6015;SDS011;3036;49.960;8.454;2024-02-14T00:32:52;3.20;;;3.00;;
6015;SDS011;3036;49.960;8.454;2024-02-14T00:35:20;2.87;;;2.77;;
6015;SDS011;3036;49.960;8.454;2024-02-14T00:37:47;2.80;;;2.57;;
6015;SDS011;3036;49.960;8.454;2024-02-14T00:40:14;3.57;;;3.27;;
6015;SDS011;3036;49.960;8.454;2024-02-14T00:42:42;4.13;;;3.00;;
6015;SDS011;3036;49.960;8.454;2024-02-14T00:45:09;3.00;;;2.73;;
6015;SDS011;3036;49.960;8.454;2024-02-14T00:47:37;3.73;;;3.10;;
6015;SDS011;3036;49.960;8.454;2024-02-14T00:50:04;7.57;;;3.40;;
6015;SDS011;3036;49.960;8.454;2024-02-14T00:52:33;5.17;;;3.10;;
6015;SDS011;3036;49.960;8.454;2024-02-14T00:55:00;3.60;;;2.90;;
6015;SDS011;3036;49.960;8.454;2024-02-14T00:57:28;3.00;;;2.70;;
6015;SDS011;3036;49.960;8.454;2024-02-14T00:59:55;5.17;;;2.80;;
6015;SDS011;3036;49.960;8.454;2024-02-14T01:02:22;2.93;;;2.73;;
6015;SDS011;3036;49.960;8.454;2024-02-14T01:04:51;7.80;;;3.00;;
6015;SDS011;3036;49.960;8.454;2024-02-14T01:07:18;4.90;;;3.03;;
6015;SDS011;3036;49.960;8.454;2024-02-14T01:09:47;2.87;;;2.67;;
6015;SDS011;3036;49.960;8.454;2024-02-14T01:12:15;2.70;;;2.60;;
6015;SDS011;3036;49.960;8.454;2024-02-14T01:14:42;3.80;;;2.80;;
6015;SDS011;3036;49.960;8.454;2024-02-14T01:17:09;2.80;;;2.60;;
6015;SDS011;3036;49.960;8.454;2024-02-14T01:19:36;5.90;;;3.17;;
6015;SDS011;3036;49.960;8.454;2024-02-14T01:22:03;2.77;;;2.53;;
6015;SDS011;3036;49.960;8.454;2024-02-14T01:24:31;2.50;;;2.30;;
6015;SDS011;3036;49.960;8.454;2024-02-14T01:26:59;2.87;;;2.40;;
6015;SDS011;3036;49.960;8.454;2024-02-14T01:29:27;3.93;;;2.60;;
6015;SDS011;3036;49.960;8.454;2024-02-14T01:31:55;2.03;;;1.83;;
6015;SDS011;3036;49.960;8.454;2024-02-14T01:34:22;3.17;;;2.67;;
6015;SDS011;3036;49.960;8.454;2024-02-14T01:36:49;2.67;;;2.47;;
6015;SDS011;3036;49.960;8.454;2024-02-14T01:39:16;3.70;;;3.40;;
6015;SDS011;3036;49.960;8.454;2024-02-14T01:41:44;3.03;;;2.80;;
6015;SDS011;3036;49.960;8.454;2024-02-14T01:44:14;3.77;;;2.63;;
6015;SDS011;3036;49.960;8.454;2024-02-14T01:46:41;3.53;;;2.90;;
6015;SDS011;3036;49.960;8.454;2024-02-14T01:49:08;3.13;;;2.93;;
6015;SDS011;3036;49.960;8.454;2024-02-14T01:51:36;2.97;;;2.73;;
6015;SDS011;3036;49.960;8.454;2024-02-14T01:54:04;5.23;;;3.10;;
6015;SDS011;3036;49.960;8.454;2024-02-14T01:56:31;4.87;;;3.17;;
6015;SDS011;3036;49.960;8.454;2024-02-14T01:58:59;4.10;;;3.30;;
6015;SDS011;3036;49.960;8.454;2024-02-14T02:01:28;3.17;;;2.80;;
6015;SDS011;3036;49.960;8.454;2024-02-14T02:03:55;4.53;;;3.40;;
6015;SDS011;3036;49.960;8.454;2024-02-14T02:06:22;5.10;;;3.47;;
6015;SDS011;3036;49.960;8.454;2024-02-14T02:08:51;3.73;;;3.40;;
6015;SDS011;3036;49.960;8.454;2024-02-14T02:11:18;4.67;;;3.67;;
6015;SDS011;3036;49.960;8.454;2024-02-14T02:13:45;3.73;;;2.80;;
6015;SDS011;3036;49.960;8.454;2024-02-14T02:16:12;4.57;;;3.20;;
6015;SDS011;3036;49.960;8.454;2024-02-14T02:18:41;5.57;;;3.13;;
6015;SDS011;3036;49.960;8.454;2024-02-14T02:21:08;6.20;;;2.90;;
6015;SDS011;3036;49.960;8.454;2024-02-14T02:23:39;3.70;;;3.13;;
6015;SDS011;3036;49.960;8.454;2024-02-14T02:26:09;3.10;;;2.87;;
6015;SDS011;3036;49.960;8.454;2024-02-14T02:28:37;5.07;;;3.00;;
6015;SDS011;3036;49.960;8.454;2024-02-14T02:31:04;2.83;;;2.67;;
6015;SDS011;3036;49.960;8.454;2024-02-14T02:33:34;3.97;;;3.10;;
6015;SDS011;3036;49.960;8.454;2024-02-14T02:36:01;4.93;;;2.97;;
6015;SDS011;3036;49.960;8.454;2024-02-14T02:38:28;3.70;;;3.13;;
6015;SDS011;3036;49.960;8.454;2024-02-14T02:40:56;3.37;;;2.87;;
6015;SDS011;3036;49.960;8.454;2024-02-14T02:43:23;3.40;;;3.10;;
6015;SDS011;3036;49.960;8.454;2024-02-14T02:45:50;3.40;;;3.20;;
6015;SDS011;3036;49.960;8.454;2024-02-14T02:48:17;2.93;;;2.73;;
6015;SDS011;3036;49.960;8.454;2024-02-14T02:50:48;4.23;;;2.57;;
6015;SDS011;3036;49.960;8.454;2024-02-14T02:53:15;3.07;;;2.87;;
6015;SDS011;3036;49.960;8.454;2024-02-14T02:55:42;3.90;;;2.90;;
6015;SDS011;3036;49.960;8.454;2024-02-14T02:58:11;4.00;;;2.87;;
6015;SDS011;3036;49.960;8.454;2024-02-14T03:00:38;4.93;;;3.10;;
6015;SDS011;3036;49.960;8.454;2024-02-14T03:03:07;4.73;;;3.00;;
6015;SDS011;3036;49.960;8.454;2024-02-14T03:05:35;3.27;;;2.90;;
6015;SDS011;3036;49.960;8.454;2024-02-14T03:08:04;3.67;;;3.33;;
6015;SDS011;3036;49.960;8.454;2024-02-14T03:10:32;3.97;;;3.10;;
6015;SDS011;3036;49.960;8.454;2024-02-14T03:12:59;3.60;;;3.00;;
6015;SDS011;3036;49.960;8.454;2024-02-14T03:15:28;3.23;;;3.03;;
6015;SDS011;3036;49.960;8.454;2024-02-14T03:17:55;7.87;;;3.37;;
6015;SDS011;3036;49.960;8.454;2024-02-14T03:20:22;4.43;;;3.50;;
6015;SDS011;3036;49.960;8.454;2024-02-14T03:22:49;3.20;;;2.90;;
6015;SDS011;3036;49.960;8.454;2024-02-14T03:25:17;3.60;;;3.30;;
6015;SDS011;3036;49.960;8.454;2024-02-14T03:27:44;2.97;;;2.67;;
6015;SDS011;3036;49.960;8.454;2024-02-14T03:30:12;3.10;;;2.83;;
6015;SDS011;3036;49.960;8.454;2024-02-14T03:32:43;2.97;;;2.70;;
6015;SDS011;3036;49.960;8.454;2024-02-14T03:35:10;2.97;;;2.77;;
6015;SDS011;3036;49.960;8.454;2024-02-14T03:37:38;6.23;;;3.20;;
6015;SDS011;3036;49.960;8.454;2024-02-14T03:40:06;2.13;;;2.03;;
6015;SDS011;3036;49.960;8.454;2024-02-14T03:42:33;3.10;;;2.90;;
6015;SDS011;3036;49.960;8.454;2024-02-14T03:45:00;3.63;;;3.37;;
6015;SDS011;3036;49.960;8.454;2024-02-14T03:47:30;4.13;;;2.97;;
6015;SDS011;3036;49.960;8.454;2024-02-14T03:49:59;3.30;;;3.00;;
6015;SDS011;3036;49.960;8.454;2024-02-14T03:52:27;4.40;;;3.00;;
6015;SDS011;3036;49.960;8.454;2024-02-14T03:54:57;5.70;;;2.73;;
6015;SDS011;3036;49.960;8.454;2024-02-14T03:57:24;4.90;;;3.00;;
6015;SDS011;3036;49.960;8.454;2024-02-14T03:59:53;3.27;;;2.90;;
6015;SDS011;3036;49.960;8.454;2024-02-14T04:02:20;3.30;;;3.00;;
6015;SDS011;3036;49.960;8.454;2024-02-14T04:04:48;5.03;;;3.13;;
6015;SDS011;3036;49.960;8.454;2024-02-14T04:07:17;3.23;;;2.70;;
6015;SDS011;3036;49.960;8.454;2024-02-14T04:09:44;2.77;;;2.57;;
6015;SDS011;3036;49.960;8.454;2024-02-14T04:12:11;5.63;;;3.07;;
6015;SDS011;3036;49.960;8.454;2024-02-14T04:14:38;4.60;;;3.17;;
6015;SDS011;3036;49.960;8.454;2024-02-14T04:17:05;3.67;;;3.37;;
6015;SDS011;3036;49.960;8.454;2024-02-14T04:19:33;4.20;;;2.70;;
6015;SDS011;3036;49.960;8.454;2024-02-14T04:22:00;3.37;;;3.13;;
6015;SDS011;3036;49.960;8.454;2024-02-14T04:24:29;5.53;;;2.93;;
6015;SDS011;3036;49.960;8.454;2024-02-14T04:26:56;3.70;;;2.73;;
6015;SDS011;3036;49.960;8.454;2024-02-14T04:29:23;5.70;;;2.93;;
6015;SDS011;3036;49.960;8.454;2024-02-14T04:31:50;4.97;;;3.27;;
6015;SDS011;3036;49.960;8.454;2024-02-14T04:34:17;2.53;;;2.33;;
6015;SDS011;3036;49.960;8.454;2024-02-14T04:36:44;3.27;;;2.97;;
6015;SDS011;3036;49.960;8.454;2024-02-14T04:39:11;3.07;;;2.77;;
6015;SDS011;3036;49.960;8.454;2024-02-14T04:41:40;3.27;;;3.07;;
6015;SDS011;3036;49.960;8.454;2024-02-14T04:44:07;3.47;;;3.10;;
6015;SDS011;3036;49.960;8.454;2024-02-14T04:46:34;3.47;;;3.07;;
6015;SDS011;3036;49.960;8.454;2024-02-14T04:49:03;4.03;;;3.03;;
6015;SDS011;3036;49.960;8.454;2024-02-14T04:51:30;3.33;;;3.00;;
6015;SDS011;3036;49.960;8.454;2024-02-14T04:53:57;7.90;;;3.10;;
6015;SDS011;3036;49.960;8.454;2024-02-14T04:56:24;3.43;;;3.07;;
6015;SDS011;3036;49.960;8.454;2024-02-14T04:58:53;3.70;;;3.27;;
6015;SDS011;3036;49.960;8.454;2024-02-14T05:01:21;3.40;;;3.10;;
6015;SDS011;3036;49.960;8.454;2024-02-14T05:03:48;3.13;;;2.93;;
6015;SDS011;3036;49.960;8.454;2024-02-14T05:06:17;5.87;;;3.17;;
6015;SDS011;3036;49.960;8.454;2024-02-14T05:08:46;5.57;;;3.43;;
6015;SDS011;3036;49.960;8.454;2024-02-14T05:11:13;3.50;;;3.20;;
6015;SDS011;3036;49.960;8.454;2024-02-14T05:13:40;5.07;;;3.07;;
6015;SDS011;3036;49.960;8.454;2024-02-14T05:16:10;6.10;;;3.40;;
6015;SDS011;3036;49.960;8.454;2024-02-14T05:18:37;9.33;;;3.00;;
6015;SDS011;3036;49.960;8.454;2024-02-14T05:21:05;3.30;;;3.10;;
6015;SDS011;3036;49.960;8.454;2024-02-14T05:23:32;4.87;;;3.23;;
6015;SDS011;3036;49.960;8.454;2024-02-14T05:25:59;3.70;;;3.17;;
6015;SDS011;3036;49.960;8.454;2024-02-14T05:28:27;4.37;;;2.83;;
6015;SDS011;3036;49.960;8.454;2024-02-14T05:30:54;5.03;;;3.20;;
6015;SDS011;3036;49.960;8.454;2024-02-14T05:33:22;5.17;;;2.87;;
6015;SDS011;3036;49.960;8.454;2024-02-14T05:35:49;4.87;;;2.90;;
6015;SDS011;3036;49.960;8.454;2024-02-14T05:38:17;5.60;;;3.20;;
6015;SDS011;3036;49.960;8.454;2024-02-14T05:40:45;3.73;;;2.73;;
6015;SDS011;3036;49.960;8.454;2024-02-14T05:43:12;4.30;;;3.00;;
6015;SDS011;3036;49.960;8.454;2024-02-14T05:45:39;7.97;;;3.40;;
6015;SDS011;3036;49.960;8.454;2024-02-14T05:48:06;2.70;;;2.50;;
6015;SDS011;3036;49.960;8.454;2024-02-14T05:50:34;2.87;;;2.67;;
6015;SDS011;3036;49.960;8.454;2024-02-14T05:53:02;3.67;;;2.60;;
6015;SDS011;3036;49.960;8.454;2024-02-14T05:55:29;2.73;;;2.53;;
6015;SDS011;3036;49.960;8.454;2024-02-14T05:57:57;3.10;;;2.90;;
6015;SDS011;3036;49.960;8.454;2024-02-14T06:00:25;2.80;;;2.50;;
6015;SDS011;3036;49.960;8.454;2024-02-14T06:02:52;2.97;;;2.77;;
6015;SDS011;3036;49.960;8.454;2024-02-14T06:05:19;2.63;;;2.43;;
6015;SDS011;3036;49.960;8.454;2024-02-14T06:07:47;4.40;;;2.67;;
6015;SDS011;3036;49.960;8.454;2024-02-14T06:10:15;2.33;;;2.13;;
6015;SDS011;3036;49.960;8.454;2024-02-14T06:12:42;4.50;;;2.60;;
6015;SDS011;3036;49.960;8.454;2024-02-14T06:15:10;3.07;;;2.30;;
6015;SDS011;3036;49.960;8.454;2024-02-14T06:17:37;2.70;;;2.50;;
6015;SDS011;3036;49.960;8.454;2024-02-14T06:20:04;2.63;;;2.10;;
6015;SDS011;3036;49.960;8.454;2024-02-14T06:22:32;5.07;;;2.57;;
6015;SDS011;3036;49.960;8.454;2024-02-14T06:25:00;2.17;;;2.07;;
6015;SDS011;3036;49.960;8.454;2024-02-14T06:27:29;2.77;;;2.20;;
6015;SDS011;3036;49.960;8.454;2024-02-14T06:29:57;2.37;;;2.17;;
6015;SDS011;3036;49.960;8.454;2024-02-14T06:32:24;4.83;;;2.70;;
6015;SDS011;3036;49.960;8.454;2024-02-14T06:34:51;3.63;;;2.73;;
6015;SDS011;3036;49.960;8.454;2024-02-14T06:37:18;5.53;;;2.97;;
6015;SDS011;3036;49.960;8.454;2024-02-14T06:39:46;2.73;;;2.53;;
6015;SDS011;3036;49.960;8.454;2024-02-14T06:42:15;2.43;;;2.23;;
6015;SDS011;3036;49.960;8.454;2024-02-14T06:44:42;4.53;;;2.60;;
6015;SDS011;3036;49.960;8.454;2024-02-14T06:47:09;2.80;;;2.60;;
6015;SDS011;3036;49.960;8.454;2024-02-14T06:49:36;2.70;;;2.50;;
6015;SDS011;3036;49.960;8.454;2024-02-14T06:52:04;5.10;;;3.10;;
6015;SDS011;3036;49.960;8.454;2024-02-14T06:54:31;3.00;;;2.80;;
6015;SDS011;3036;49.960;8.454;2024-02-14T06:56:58;3.27;;;2.63;;
6015;SDS011;3036;49.960;8.454;2024-02-14T06:59:27;4.13;;;2.70;;
6015;SDS011;3036;49.960;8.454;2024-02-14T07:01:54;4.17;;;2.80;;
6015;SDS011;3036;49.960;8.454;2024-02-14T07:04:22;2.83;;;2.17;;
6015;SDS011;3036;49.960;8.454;2024-02-14T07:06:50;3.20;;;2.27;;
6015;SDS011;3036;49.960;8.454;2024-02-14T07:09:18;3.63;;;2.53;;
6015;SDS011;3036;49.960;8.454;2024-02-14T07:11:45;2.73;;;2.53;;
6015;SDS011;3036;49.960;8.454;2024-02-14T07:14:12;2.60;;;2.40;;
6015;SDS011;3036;49.960;8.454;2024-02-14T07:16:41;3.90;;;2.67;;
6015;SDS011;3036;49.960;8.454;2024-02-14T07:19:08;3.37;;;2.40;;
6015;SDS011;3036;49.960;8.454;2024-02-14T07:21:35;3.60;;;2.47;;
6015;SDS011;3036;49.960;8.454;2024-02-14T07:24:04;2.83;;;2.63;;
6015;SDS011;3036;49.960;8.454;2024-02-14T07:26:31;2.57;;;2.33;;
6015;SDS011;3036;49.960;8.454;2024-02-14T07:28:58;2.60;;;2.43;;
6015;SDS011;3036;49.960;8.454;2024-02-14T07:31:28;2.87;;;2.50;;
6015;SDS011;3036;49.960;8.454;2024-02-14T07:33:57;5.40;;;3.20;;
6015;SDS011;3036;49.960;8.454;2024-02-14T07:36:24;2.93;;;2.67;;
6015;SDS011;3036;49.960;8.454;2024-02-14T07:38:51;2.80;;;2.27;;
6015;SDS011;3036;49.960;8.454;2024-02-14T07:41:18;3.60;;;2.93;;
6015;SDS011;3036;49.960;8.454;2024-02-14T07:43:46;3.20;;;3.00;;
6015;SDS011;3036;49.960;8.454;2024-02-14T07:46:16;2.97;;;2.33;;
6015;SDS011;3036;49.960;8.454;2024-02-14T07:48:43;2.93;;;2.37;;
6015;SDS011;3036;49.960;8.454;2024-02-14T07:51:12;3.30;;;3.00;;
6015;SDS011;3036;49.960;8.454;2024-02-14T07:53:39;2.67;;;2.40;;
6015;SDS011;3036;49.960;8.454;2024-02-14T07:56:06;5.30;;;2.43;;
6015;SDS011;3036;49.960;8.454;2024-02-14T07:58:33;2.63;;;2.43;;
6015;SDS011;3036;49.960;8.454;2024-02-14T08:01:00;5.40;;;2.50;;
6015;SDS011;3036;49.960;8.454;2024-02-14T08:03:29;3.23;;;2.57;;
6015;SDS011;3036;49.960;8.454;2024-02-14T08:05:59;3.20;;;2.90;;
6015;SDS011;3036;49.960;8.454;2024-02-14T08:08:28;2.40;;;2.20;;
6015;SDS011;3036;49.960;8.454;2024-02-14T08:10:55;3.40;;;2.27;;
6015;SDS011;3036;49.960;8.454;2024-02-14T08:13:22;4.33;;;2.37;;
6015;SDS011;3036;49.960;8.454;2024-02-14T08:15:49;2.37;;;2.17;;
6015;SDS011;3036;49.960;8.454;2024-02-14T08:18:16;4.60;;;2.17;;
6015;SDS011;3036;49.960;8.454;2024-02-14T08:20:43;5.80;;;2.10;;
6015;SDS011;3036;49.960;8.454;2024-02-14T08:23:10;5.87;;;2.17;;
6015;SDS011;3036;49.960;8.454;2024-02-14T08:25:38;3.43;;;2.33;;
6015;SDS011;3036;49.960;8.454;2024-02-14T08:28:06;2.30;;;2.10;;
6015;SDS011;3036;49.960;8.454;2024-02-14T08:30:33;3.33;;;1.90;;
6015;SDS011;3036;49.960;8.454;2024-02-14T08:33:00;3.57;;;2.00;;
6015;SDS011;3036;49.960;8.454;2024-02-14T08:35:27;3.13;;;2.60;;
6015;SDS011;3036;49.960;8.454;2024-02-14T08:37:54;3.83;;;2.13;;
6015;SDS011;3036;49.960;8.454;2024-02-14T08:40:21;3.87;;;2.30;;
6015;SDS011;3036;49.960;8.454;2024-02-14T08:42:50;2.77;;;2.50;;
6015;SDS011;3036;49.960;8.454;2024-02-14T08:45:17;5.03;;;2.60;;
6015;SDS011;3036;49.960;8.454;2024-02-14T08:47:44;2.33;;;2.23;;
6015;SDS011;3036;49.960;8.454;2024-02-14T08:50:11;2.43;;;2.30;;
6015;SDS011;3036;49.960;8.454;2024-02-14T08:52:38;2.43;;;2.13;;
6015;SDS011;3036;49.960;8.454;2024-02-14T08:55:06;3.07;;;2.30;;
6015;SDS011;3036;49.960;8.454;2024-02-14T08:57:39;3.40;;;2.37;;
6015;SDS011;3036;49.960;8.454;2024-02-14T09:00:08;4.10;;;2.07;;
6015;SDS011;3036;49.960;8.454;2024-02-14T09:02:39;4.93;;;1.63;;
6015;SDS011;3036;49.960;8.454;2024-02-14T09:05:07;5.23;;;1.60;;
6015;SDS011;3036;49.960;8.454;2024-02-14T09:07:34;1.67;;;1.27;;
6015;SDS011;3036;49.960;8.454;2024-02-14T09:10:02;3.43;;;1.90;;
6015;SDS011;3036;49.960;8.454;2024-02-14T09:12:30;1.83;;;1.40;;
6015;SDS011;3036;49.960;8.454;2024-02-14T09:14:58;1.60;;;1.50;;
6015;SDS011;3036;49.960;8.454;2024-02-14T09:17:26;1.67;;;1.57;;
6015;SDS011;3036;49.960;8.454;2024-02-14T09:19:53;2.33;;;1.30;;
6015;SDS011;3036;49.960;8.454;2024-02-14T09:22:20;1.37;;;1.27;;
6015;SDS011;3036;49.960;8.454;2024-02-14T09:24:48;1.63;;;1.53;;
6015;SDS011;3036;49.960;8.454;2024-02-14T09:27:15;1.57;;;1.47;;
6015;SDS011;3036;49.960;8.454;2024-02-14T09:29:42;3.33;;;1.37;;
6015;SDS011;3036;49.960;8.454;2024-02-14T09:32:09;1.57;;;1.53;;
6015;SDS011;3036;49.960;8.454;2024-02-14T09:34:38;5.00;;;1.50;;
6015;SDS011;3036;49.960;8.454;2024-02-14T09:37:05;2.63;;;1.57;;
6015;SDS011;3036;49.960;8.454;2024-02-14T09:39:32;2.50;;;1.73;;
6015;SDS011;3036;49.960;8.454;2024-02-14T09:42:01;2.33;;;1.60;;
6015;SDS011;3036;49.960;8.454;2024-02-14T09:44:32;2.60;;;1.43;;
6015;SDS011;3036;49.960;8.454;2024-02-14T09:47:00;1.90;;;1.80;;
6015;SDS011;3036;49.960;8.454;2024-02-14T09:49:29;4.40;;;1.70;;
6015;SDS011;3036;49.960;8.454;2024-02-14T09:51:58;2.00;;;1.53;;
6015;SDS011;3036;49.960;8.454;2024-02-14T09:54:25;1.97;;;1.57;;
6015;SDS011;3036;49.960;8.454;2024-02-14T09:56:53;1.67;;;1.50;;
6015;SDS011;3036;49.960;8.454;2024-02-14T09:59:22;1.50;;;1.50;;
6015;SDS011;3036;49.960;8.454;2024-02-14T10:01:50;1.90;;;1.80;;
6015;SDS011;3036;49.960;8.454;2024-02-14T10:04:17;2.83;;;1.90;;
6015;SDS011;3036;49.960;8.454;2024-02-14T10:06:45;1.63;;;1.33;;
6015;SDS011;3036;49.960;8.454;2024-02-14T10:09:18;2.57;;;1.77;;
6015;SDS011;3036;49.960;8.454;2024-02-14T10:11:45;4.77;;;1.93;;
6015;SDS011;3036;49.960;8.454;2024-02-14T10:14:12;2.60;;;1.53;;
6015;SDS011;3036;49.960;8.454;2024-02-14T10:16:39;1.20;;;1.20;;
6015;SDS011;3036;49.960;8.454;2024-02-14T10:19:14;1.87;;;1.53;;
6015;SDS011;3036;49.960;8.454;2024-02-14T10:21:41;1.93;;;1.47;;
6015;SDS011;3036;49.960;8.454;2024-02-14T10:24:08;1.70;;;1.50;;
6015;SDS011;3036;49.960;8.454;2024-02-14T10:26:37;1.60;;;1.50;;
6015;SDS011;3036;49.960;8.454;2024-02-14T10:29:05;2.93;;;1.80;;
6015;SDS011;3036;49.960;8.454;2024-02-14T10:31:35;1.90;;;1.53;;
6015;SDS011;3036;49.960;8.454;2024-02-14T10:34:02;3.33;;;1.70;;
6015;SDS011;3036;49.960;8.454;2024-02-14T10:36:31;1.30;;;1.20;;
6015;SDS011;3036;49.960;8.454;2024-02-14T10:38:59;3.80;;;1.67;;
6015;SDS011;3036;49.960;8.454;2024-02-14T10:41:29;2.70;;;1.20;;
6015;SDS011;3036;49.960;8.454;2024-02-14T10:44:01;1.63;;;1.53;;
6015;SDS011;3036;49.960;8.454;2024-02-14T10:46:29;4.77;;;1.77;;
6015;SDS011;3036;49.960;8.454;2024-02-14T10:48:58;1.60;;;1.50;;
6015;SDS011;3036;49.960;8.454;2024-02-14T10:51:27;2.00;;;1.70;;
6015;SDS011;3036;49.960;8.454;2024-02-14T10:53:57;2.40;;;1.70;;
6015;SDS011;3036;49.960;8.454;2024-02-14T10:56:24;3.57;;;1.60;;
6015;SDS011;3036;49.960;8.454;2024-02-14T10:58:52;2.23;;;2.03;;
6015;SDS011;3036;49.960;8.454;2024-02-14T11:01:23;16.23;;;2.60;;
6015;SDS011;3036;49.960;8.454;2024-02-14T11:03:52;2.93;;;1.40;;
6015;SDS011;3036;49.960;8.454;2024-02-14T11:06:20;3.80;;;1.70;;
6015;SDS011;3036;49.960;8.454;2024-02-14T11:08:55;1.43;;;1.30;;
6015;SDS011;3036;49.960;8.454;2024-02-14T11:11:22;1.30;;;1.20;;
6015;SDS011;3036;49.960;8.454;2024-02-14T11:13:52;1.57;;;1.47;;
6015;SDS011;3036;49.960;8.454;2024-02-14T11:16:23;1.63;;;1.43;;
6015;SDS011;3036;49.960;8.454;2024-02-14T11:18:53;2.10;;;1.37;;
6015;SDS011;3036;49.960;8.454;2024-02-14T11:21:27;1.10;;;1.07;;
6015;SDS011;3036;49.960;8.454;2024-02-14T11:23:55;2.63;;;1.10;;
6015;SDS011;3036;49.960;8.454;2024-02-14T11:26:24;2.27;;;1.40;;
6015;SDS011;3036;49.960;8.454;2024-02-14T11:28:59;1.13;;;1.13;;
6015;SDS011;3036;49.960;8.454;2024-02-14T11:31:32;2.33;;;1.00;;
6015;SDS011;3036;49.960;8.454;2024-02-14T11:34:02;1.53;;;1.10;;
6015;SDS011;3036;49.960;8.454;2024-02-14T11:36:29;1.57;;;1.17;;
6015;SDS011;3036;49.960;8.454;2024-02-14T11:38:57;1.30;;;1.13;;
6015;SDS011;3036;49.960;8.454;2024-02-14T11:41:27;0.90;;;0.90;;
6015;SDS011;3036;49.960;8.454;2024-02-14T11:43:54;1.37;;;1.37;;
6015;SDS011;3036;49.960;8.454;2024-02-14T11:46:21;1.20;;;1.20;;
6015;SDS011;3036;49.960;8.454;2024-02-14T11:48:49;1.53;;;1.20;;
6015;SDS011;3036;49.960;8.454;2024-02-14T11:51:18;1.50;;;1.40;;
6015;SDS011;3036;49.960;8.454;2024-02-14T11:53:45;1.20;;;1.20;;
6015;SDS011;3036;49.960;8.454;2024-02-14T11:56:12;2.20;;;1.93;;
6015;SDS011;3036;49.960;8.454;2024-02-14T11:58:41;1.80;;;1.30;;
6015;SDS011;3036;49.960;8.454;2024-02-14T12:01:08;1.90;;;1.10;;
6015;SDS011;3036;49.960;8.454;2024-02-14T12:03:37;1.60;;;1.00;;
6015;SDS011;3036;49.960;8.454;2024-02-14T12:06:06;1.03;;;1.03;;
6015;SDS011;3036;49.960;8.454;2024-02-14T12:08:33;4.07;;;0.97;;
6015;SDS011;3036;49.960;8.454;2024-02-14T12:11:00;5.17;;;1.27;;
6015;SDS011;3036;49.960;8.454;2024-02-14T12:13:27;1.37;;;1.23;;
6015;SDS011;3036;49.960;8.454;2024-02-14T12:15:57;1.30;;;1.20;;
6015;SDS011;3036;49.960;8.454;2024-02-14T12:18:24;2.20;;;1.20;;
6015;SDS011;3036;49.960;8.454;2024-02-14T12:20:51;1.77;;;1.33;;
6015;SDS011;3036;49.960;8.454;2024-02-14T12:23:20;1.93;;;1.80;;
6015;SDS011;3036;49.960;8.454;2024-02-14T12:25:51;1.03;;;1.03;;
6015;SDS011;3036;49.960;8.454;2024-02-14T12:28:18;1.50;;;1.40;;
6015;SDS011;3036;49.960;8.454;2024-02-14T12:30:45;1.17;;;1.17;;
6015;SDS011;3036;49.960;8.454;2024-02-14T12:33:14;0.90;;;0.90;;
6015;SDS011;3036;49.960;8.454;2024-02-14T12:35:42;1.27;;;1.07;;
6015;SDS011;3036;49.960;8.454;2024-02-14T12:38:09;1.63;;;1.57;;
6015;SDS011;3036;49.960;8.454;2024-02-14T12:40:38;2.03;;;1.50;;
6015;SDS011;3036;49.960;8.454;2024-02-14T12:43:07;1.80;;;1.10;;
6015;SDS011;3036;49.960;8.454;2024-02-14T12:45:34;3.90;;;2.63;;
6015;SDS011;3036;49.960;8.454;2024-02-14T12:48:01;2.10;;;1.60;;
6015;SDS011;3036;49.960;8.454;2024-02-14T12:50:29;2.10;;;2.00;;
6015;SDS011;3036;49.960;8.454;2024-02-14T12:52:56;1.60;;;1.50;;
6015;SDS011;3036;49.960;8.454;2024-02-14T12:55:24;1.57;;;1.13;;
6015;SDS011;3036;49.960;8.454;2024-02-14T12:57:55;1.40;;;1.00;;
6015;SDS011;3036;49.960;8.454;2024-02-14T13:00:22;1.23;;;1.23;;
6015;SDS011;3036;49.960;8.454;2024-02-14T13:02:49;1.00;;;1.00;;
6015;SDS011;3036;49.960;8.454;2024-02-14T13:05:17;4.10;;;1.37;;
6015;SDS011;3036;49.960;8.454;2024-02-14T13:07:44;1.27;;;1.27;;
6015;SDS011;3036;49.960;8.454;2024-02-14T13:10:12;2.60;;;1.43;;
6015;SDS011;3036;49.960;8.454;2024-02-14T13:12:40;1.63;;;1.30;;
6015;SDS011;3036;49.960;8.454;2024-02-14T13:15:10;2.23;;;1.60;;
6015;SDS011;3036;49.960;8.454;2024-02-14T13:17:37;2.13;;;1.20;;
6015;SDS011;3036;49.960;8.454;2024-02-14T13:20:04;2.47;;;1.43;;
6015;SDS011;3036;49.960;8.454;2024-02-14T13:22:32;1.10;;;1.10;;
6015;SDS011;3036;49.960;8.454;2024-02-14T13:24:59;1.27;;;1.17;;
6015;SDS011;3036;49.960;8.454;2024-02-14T13:27:26;1.60;;;1.50;;
6015;SDS011;3036;49.960;8.454;2024-02-14T13:29:53;1.70;;;1.60;;
6015;SDS011;3036;49.960;8.454;2024-02-14T13:32:21;2.13;;;1.77;;
6015;SDS011;3036;49.960;8.454;2024-02-14T13:34:48;1.20;;;1.20;;
6015;SDS011;3036;49.960;8.454;2024-02-14T13:37:15;1.60;;;1.47;;
6015;SDS011;3036;49.960;8.454;2024-02-14T13:39:42;2.97;;;1.80;;
6015;SDS011;3036;49.960;8.454;2024-02-14T13:42:09;1.43;;;1.33;;
6015;SDS011;3036;49.960;8.454;2024-02-14T13:44:36;1.77;;;1.67;;
6015;SDS011;3036;49.960;8.454;2024-02-14T13:47:04;1.83;;;1.73;;
6015;SDS011;3036;49.960;8.454;2024-02-14T13:49:32;1.50;;;1.50;;
6015;SDS011;3036;49.960;8.454;2024-02-14T13:51:59;1.77;;;1.67;;
6015;SDS011;3036;49.960;8.454;2024-02-14T13:54:26;2.60;;;1.60;;
6015;SDS011;3036;49.960;8.454;2024-02-14T13:56:53;2.00;;;1.70;;
6015;SDS011;3036;49.960;8.454;2024-02-14T13:59:21;1.93;;;1.83;;
6015;SDS011;3036;49.960;8.454;2024-02-14T14:01:48;1.90;;;1.80;;
6015;SDS011;3036;49.960;8.454;2024-02-14T14:04:15;1.90;;;1.80;;
6015;SDS011;3036;49.960;8.454;2024-02-14T14:06:43;1.60;;;1.60;;
6015;SDS011;3036;49.960;8.454;2024-02-14T14:09:14;1.47;;;1.47;;
6015;SDS011;3036;49.960;8.454;2024-02-14T14:11:41;1.70;;;1.70;;
6015;SDS011;3036;49.960;8.454;2024-02-14T14:14:14;7.97;;;7.13;;
6015;SDS011;3036;49.960;8.454;2024-02-14T14:16:43;1.87;;;1.77;;
6015;SDS011;3036;49.960;8.454;2024-02-14T14:19:10;2.50;;;2.00;;
6015;SDS011;3036;49.960;8.454;2024-02-14T14:21:38;1.57;;;1.50;;
6015;SDS011;3036;49.960;8.454;2024-02-14T14:24:07;1.73;;;1.63;;
6015;SDS011;3036;49.960;8.454;2024-02-14T14:26:34;1.80;;;1.70;;
6015;SDS011;3036;49.960;8.454;2024-02-14T14:29:02;1.90;;;1.80;;
6015;SDS011;3036;49.960;8.454;2024-02-14T14:31:30;1.77;;;1.43;;
6015;SDS011;3036;49.960;8.454;2024-02-14T14:33:58;2.40;;;1.73;;
6015;SDS011;3036;49.960;8.454;2024-02-14T14:36:26;2.10;;;1.90;;
6015;SDS011;3036;49.960;8.454;2024-02-14T14:38:53;2.00;;;1.90;;
6015;SDS011;3036;49.960;8.454;2024-02-14T14:41:21;2.83;;;1.97;;
6015;SDS011;3036;49.960;8.454;2024-02-14T14:43:48;2.23;;;2.13;;
6015;SDS011;3036;49.960;8.454;2024-02-14T14:46:15;2.20;;;1.87;;
6015;SDS011;3036;49.960;8.454;2024-02-14T14:48:42;1.63;;;1.63;;
6015;SDS011;3036;49.960;8.454;2024-02-14T14:51:09;3.33;;;2.00;;
6015;SDS011;3036;49.960;8.454;2024-02-14T14:53:36;2.73;;;2.00;;
6015;SDS011;3036;49.960;8.454;2024-02-14T14:56:03;1.80;;;1.80;;
6015;SDS011;3036;49.960;8.454;2024-02-14T14:58:32;2.57;;;2.07;;
6015;SDS011;3036;49.960;8.454;2024-02-14T15:01:01;2.13;;;2.03;;
6015;SDS011;3036;49.960;8.454;2024-02-14T15:03:29;2.00;;;1.60;;
6015;SDS011;3036;49.960;8.454;2024-02-14T15:05:57;4.13;;;2.40;;
6015;SDS011;3036;49.960;8.454;2024-02-14T15:08:24;3.90;;;2.60;;
6015;SDS011;3036;49.960;8.454;2024-02-14T15:10:53;2.83;;;2.33;;
6015;SDS011;3036;49.960;8.454;2024-02-14T15:13:20;3.92;;;2.58;;
6015;SDS011;3036;49.960;8.454;2024-02-14T15:15:48;2.93;;;2.57;;
6015;SDS011;3036;49.960;8.454;2024-02-14T15:18:15;2.60;;;2.30;;